createdAt,value
2022-10-10T00:00:17.441Z,21.85
2022-10-10T00:02:58.235Z,29.85
2022-10-10T00:05:25.520Z,17.13
2022-10-10T00:07:52.624Z,29.23
2022-10-10T00:10:26.281Z,31.15
2022-10-10T00:12:53.740Z,23.35
2022-10-10T00:15:27.259Z,21.27
2022-10-10T00:17:54.533Z,24.02
2022-10-10T00:20:22.067Z,37.05
2022-10-10T00:22:56.211Z,23.90
2022-10-10T00:25:23.407Z,32.50
2022-10-10T00:27:57.265Z,30.23
2022-10-10T00:30:24.533Z,22.38
2022-10-10T00:32:51.976Z,23.95
2022-10-10T00:35:26.339Z,19.40
2022-10-10T00:37:53.604Z,26.92
2022-10-10T00:40:27.267Z,29.58
2022-10-10T00:42:54.503Z,29.65
2022-10-10T00:45:46.329Z,25.52
2022-10-10T00:48:18.757Z,27.42
2022-10-10T00:50:55.368Z,19.83
2022-10-10T00:53:24.343Z,29.98
2022-10-10T00:55:52.104Z,23.90
2022-10-10T00:58:26.253Z,30.67
2022-10-10T01:01:14.204Z,28.65
2022-10-10T01:03:48.364Z,31.83
2022-10-10T01:06:15.587Z,27.65
2022-10-10T01:08:49.383Z,28.60
2022-10-10T01:11:34.841Z,27.05
2022-10-10T01:14:14.238Z,31.30
2022-10-10T01:16:47.823Z,27.95
2022-10-10T01:19:40.489Z,27.15
2022-10-10T01:22:15.321Z,26.83
2022-10-10T01:25:08.274Z,34.53
2022-10-10T01:27:39.319Z,23.10
2022-10-10T01:30:24.243Z,21.50
2022-10-10T01:32:51.705Z,25.08
2022-10-10T01:37:52.857Z,31.13
2022-10-10T01:41:02.207Z,22.65
2022-10-10T01:43:30.899Z,23.17
2022-10-10T01:45:58.123Z,27.17
2022-10-10T01:48:37.259Z,17.88
2022-10-10T01:51:13.739Z,23.52
2022-10-10T01:53:53.392Z,22.13
2022-10-10T01:56:30.785Z,15.00
2022-10-10T01:59:10.370Z,24.13
2022-10-10T02:01:57.238Z,25.88
2022-10-10T02:04:38.252Z,23.60
2022-10-10T02:07:34.194Z,18.38
2022-10-10T02:10:09.264Z,21.83
2022-10-10T02:12:43.301Z,18.80
2022-10-10T02:15:15.981Z,19.23
2022-10-10T02:17:52.215Z,23.90
2022-10-10T02:20:21.519Z,24.80
2022-10-10T02:22:51.578Z,26.23
2022-10-10T02:25:29.286Z,24.63
2022-10-10T02:27:59.282Z,23.90
2022-10-10T02:30:33.293Z,21.95
2022-10-10T02:33:01.685Z,19.98
2022-10-10T02:35:38.276Z,19.02
2022-10-10T02:38:07.214Z,25.23
2022-10-10T02:40:42.303Z,23.73
2022-10-10T02:43:10.950Z,21.77
2022-10-10T02:45:45.292Z,24.20
2022-10-10T02:48:12.512Z,24.48
2022-10-10T02:50:46.372Z,29.67
2022-10-10T02:53:13.639Z,25.40
2022-10-10T02:55:40.729Z,28.30
2022-10-10T02:58:14.520Z,24.80
2022-10-10T03:00:41.789Z,25.83
2022-10-10T03:03:28.287Z,24.33
2022-10-10T03:06:02.374Z,14.57
2022-10-10T03:08:29.556Z,25.05
2022-10-10T03:11:01.078Z,28.30
2022-10-10T03:13:35.305Z,23.60
2022-10-10T03:16:03.447Z,17.55
2022-10-10T03:18:37.443Z,26.25
2022-10-10T03:21:04.987Z,26.45
2022-10-10T03:26:05.318Z,21.63
2022-10-10T03:28:32.611Z,19.83
2022-10-10T03:31:06.443Z,25.65
2022-10-10T03:33:34.712Z,16.95
2022-10-10T03:36:01.834Z,28.35
2022-10-10T03:38:35.327Z,18.58
2022-10-10T03:41:02.570Z,15.02
2022-10-10T03:43:36.351Z,21.02
2022-10-10T03:46:04.027Z,27.50
2022-10-10T03:48:31.152Z,24.10
2022-10-10T03:51:05.368Z,26.27
2022-10-10T03:53:32.582Z,17.85
2022-10-10T03:56:06.422Z,19.55
2022-10-10T03:58:33.655Z,29.08
2022-10-10T04:01:02.091Z,25.92
2022-10-10T04:03:36.369Z,22.92
2022-10-10T04:06:03.693Z,25.40
2022-10-10T04:08:30.836Z,22.52
2022-10-10T04:11:04.330Z,20.50
2022-10-10T04:13:31.579Z,33.63
2022-10-10T04:16:05.555Z,23.42
2022-10-10T04:18:32.786Z,24.90
2022-10-10T04:21:03.307Z,20.45
2022-10-10T04:23:41.502Z,21.02
2022-10-10T04:28:42.258Z,28.23
2022-10-10T04:31:09.672Z,16.40
2022-10-10T04:33:43.236Z,16.08
2022-10-10T04:36:10.433Z,34.92
2022-10-10T04:38:37.673Z,20.38
2022-10-10T04:41:11.297Z,23.40
2022-10-10T04:43:38.507Z,27.90
2022-10-10T04:46:12.336Z,32.20
2022-10-10T04:48:39.555Z,21.83
2022-10-10T04:51:06.791Z,17.15
2022-10-10T04:53:41.310Z,19.77
2022-10-10T04:56:08.544Z,22.92
2022-10-10T04:58:42.376Z,30.48
2022-10-10T05:01:09.638Z,25.48
2022-10-10T05:03:49.362Z,19.08
2022-10-10T05:06:16.535Z,21.83
2022-10-10T05:08:46.438Z,28.75
2022-10-10T05:11:20.355Z,22.08
2022-10-10T05:13:49.867Z,26.70
2022-10-10T05:16:24.387Z,19.00
2022-10-10T05:18:51.599Z,19.83
2022-10-10T05:21:19.561Z,23.75
2022-10-10T05:23:53.373Z,27.58
2022-10-10T05:26:20.883Z,18.65
2022-10-10T05:28:55.371Z,26.38
2022-10-10T05:31:22.555Z,18.65
2022-10-10T05:33:49.650Z,25.55
2022-10-10T05:36:23.424Z,26.90
2022-10-10T05:38:50.664Z,22.40
2022-10-10T05:41:24.457Z,19.02
2022-10-10T05:43:51.646Z,27.02
2022-10-10T05:46:20.326Z,33.08
2022-10-10T05:48:54.361Z,26.58
2022-10-10T05:51:21.996Z,19.00
2022-10-10T05:56:23.343Z,32.40
2022-10-10T05:58:51.639Z,27.73
2022-10-10T06:01:25.239Z,25.60
2022-10-10T06:03:59.487Z,23.05
2022-10-10T06:06:33.243Z,25.65
2022-10-10T06:09:00.574Z,24.92
2022-10-10T06:11:27.782Z,25.95
2022-10-10T06:14:01.347Z,25.77
2022-10-10T06:16:28.537Z,21.52
2022-10-10T06:19:05.361Z,23.95
2022-10-10T06:21:32.491Z,19.75
2022-10-10T06:24:13.513Z,32.03
2022-10-10T06:26:40.593Z,22.48
2022-10-10T06:29:07.865Z,25.73
2022-10-10T06:31:46.549Z,22.73
2022-10-10T06:34:13.903Z,22.17
2022-10-10T06:36:47.413Z,25.15
2022-10-10T06:39:14.724Z,21.10
2022-10-10T06:41:50.216Z,23.30
2022-10-10T06:44:24.388Z,14.38
2022-10-10T06:46:51.489Z,23.40
2022-10-10T06:49:32.565Z,16.15
2022-10-10T06:51:59.654Z,18.10
2022-10-10T06:54:26.952Z,13.52
2022-10-10T06:57:00.407Z,16.83
2022-10-10T06:59:27.692Z,20.13
2022-10-10T07:02:01.596Z,14.52
2022-10-10T07:04:35.315Z,13.07
2022-10-10T07:07:09.537Z,20.75
2022-10-10T07:09:36.775Z,25.98
2022-10-10T07:12:04.508Z,17.80
2022-10-10T07:14:38.448Z,21.20
2022-10-10T07:17:05.547Z,15.82
2022-10-10T07:19:39.678Z,21.05
2022-10-10T07:22:06.830Z,19.00
2022-10-10T07:24:34.028Z,15.52
2022-10-10T07:27:08.930Z,18.35
2022-10-10T07:29:36.267Z,13.90
2022-10-10T07:32:10.424Z,20.13
2022-10-10T07:34:38.119Z,18.95
2022-10-10T07:37:11.617Z,18.52
2022-10-10T07:39:38.926Z,11.00
2022-10-10T07:42:06.043Z,18.60
2022-10-10T07:44:39.437Z,12.10
2022-10-10T07:47:06.652Z,13.95
2022-10-10T07:49:40.625Z,18.70
2022-10-10T07:52:07.794Z,15.68
2022-10-10T07:54:34.908Z,13.70
2022-10-10T07:57:08.418Z,11.60
2022-10-10T07:59:35.942Z,21.52
2022-10-10T08:02:09.478Z,16.52
2022-10-10T08:05:09.107Z,15.70
2022-10-10T08:10:58.486Z,10.93
2022-10-10T08:13:33.554Z,15.30
2022-10-10T08:16:00.877Z,12.82
2022-10-10T08:18:27.998Z,17.00
2022-10-10T08:21:15.652Z,17.40
2022-10-10T08:23:42.757Z,16.77
2022-10-10T08:26:12.008Z,19.58
2022-10-10T08:28:46.442Z,16.70
2022-10-10T08:31:14.937Z,19.83
2022-10-10T08:33:49.430Z,11.65
2022-10-10T08:36:18.326Z,12.75
2022-10-10T08:38:45.811Z,14.48
2022-10-10T08:41:32.417Z,16.08
2022-10-10T08:44:01.785Z,13.85
2022-10-10T08:46:43.781Z,12.38
2022-10-10T08:49:19.763Z,15.98
2022-10-10T08:51:56.402Z,16.42
2022-10-10T08:54:24.416Z,14.48
2022-10-10T08:56:58.406Z,15.13
2022-10-10T08:59:28.280Z,15.95
2022-10-10T09:02:18.150Z,10.27
2022-10-10T09:04:54.237Z,13.98
2022-10-10T09:07:37.411Z,12.38
2022-10-10T09:10:26.656Z,12.27
2022-10-10T09:13:19.404Z,19.48
2022-10-10T09:15:52.398Z,17.73
2022-10-10T09:18:34.514Z,15.40
2022-10-10T09:21:01.888Z,15.77
2022-10-10T09:23:38.506Z,16.80
2022-10-10T09:26:10.279Z,14.93
2022-10-10T09:28:49.554Z,12.07
2022-10-10T09:31:22.217Z,9.20
2022-10-10T09:34:08.429Z,7.90
2022-10-10T09:36:37.388Z,13.32
2022-10-10T09:39:07.472Z,10.18
2022-10-10T09:41:49.393Z,10.35
2022-10-10T09:44:24.351Z,12.90
2022-10-10T09:46:51.781Z,11.50
2022-10-10T09:49:26.375Z,10.75
2022-10-10T09:51:53.701Z,11.55
2022-10-10T09:54:21.240Z,15.23
2022-10-10T09:57:00.519Z,14.10
2022-10-10T09:59:37.432Z,10.77
2022-10-10T10:02:16.629Z,13.45
2022-10-10T10:04:50.482Z,13.88
2022-10-10T10:07:27.451Z,10.05
2022-10-10T10:09:56.814Z,15.90
2022-10-10T10:12:51.418Z,8.98
2022-10-10T10:15:19.878Z,12.93
2022-10-10T10:18:14.553Z,11.45
2022-10-10T10:20:43.738Z,16.77
2022-10-10T10:26:21.467Z,11.38
2022-10-10T10:28:55.665Z,7.70
2022-10-10T10:31:27.061Z,11.27
2022-10-10T10:34:09.487Z,7.70
2022-10-10T10:36:46.730Z,10.98
2022-10-10T10:39:36.388Z,12.90
2022-10-10T10:42:11.765Z,8.40
2022-10-10T10:44:45.621Z,11.20
2022-10-10T10:47:42.326Z,9.20
2022-10-10T10:50:18.619Z,11.25
2022-10-10T10:52:55.188Z,7.35
2022-10-10T10:55:35.824Z,9.93
2022-10-10T11:01:33.450Z,7.20
2022-10-10T11:05:19.251Z,10.48
2022-10-10T11:07:24.600Z,7.50
2022-10-10T11:10:02.971Z,11.13
2022-10-10T11:13:09.594Z,10.15
2022-10-10T11:18:39.604Z,9.13
2022-10-10T11:21:06.762Z,14.23
2022-10-10T11:23:46.537Z,10.20
2022-10-10T11:26:18.850Z,11.07
2022-10-10T11:29:05.687Z,9.85
2022-10-10T11:31:53.064Z,8.02
2022-10-10T11:34:26.473Z,10.90
2022-10-10T11:36:55.316Z,12.68
2022-10-10T11:42:59.469Z,8.48
2022-10-10T11:45:35.364Z,11.50
2022-10-10T11:48:16.248Z,7.80
2022-10-10T11:50:50.384Z,11.15
2022-10-10T11:53:27.851Z,9.63
2022-10-10T11:56:08.535Z,8.27
2022-10-10T11:58:35.703Z,12.48
2022-10-10T12:01:29.365Z,8.65
2022-10-10T12:04:03.604Z,10.20
2022-10-10T12:06:48.399Z,4.75
2022-10-10T12:09:19.161Z,10.80
2022-10-10T12:11:57.392Z,6.40
2022-10-10T12:16:52.034Z,8.82
2022-10-10T12:19:27.497Z,8.88
2022-10-10T12:22:05.567Z,11.75
2022-10-10T12:24:43.039Z,9.25
2022-10-10T12:27:16.877Z,10.32
2022-10-10T12:29:55.551Z,9.15
2022-10-10T12:32:40.628Z,6.50
2022-10-10T12:35:33.468Z,8.43
2022-10-10T12:38:07.345Z,7.65
2022-10-10T12:40:41.538Z,8.65
2022-10-10T12:43:22.329Z,12.98
2022-10-10T12:46:16.472Z,9.55
2022-10-10T12:48:44.023Z,10.18
2022-10-10T12:53:48.317Z,18.40
2022-10-10T12:56:23.527Z,7.43
2022-10-10T12:58:50.766Z,10.73
2022-10-10T13:01:32.518Z,11.93
2022-10-10T13:04:06.461Z,16.65
2022-10-10T13:06:48.486Z,12.65
2022-10-10T13:09:15.697Z,10.32
2022-10-10T13:12:03.489Z,8.40
2022-10-10T13:14:39.639Z,9.05
2022-10-10T13:17:31.486Z,15.98
2022-10-10T13:20:01.762Z,13.00
2022-10-10T13:22:41.962Z,13.27
2022-10-10T13:25:12.178Z,11.73
2022-10-10T13:27:45.584Z,8.93
2022-10-10T13:30:19.573Z,16.70
2022-10-10T13:32:53.488Z,12.90
2022-10-10T13:35:25.383Z,8.40
2022-10-10T13:38:04.478Z,10.02
2022-10-10T13:40:31.690Z,12.40
2022-10-10T13:43:05.726Z,11.15
2022-10-10T13:45:36.458Z,9.40
2022-10-10T13:48:03.495Z,11.90
2022-10-10T13:50:40.579Z,11.05
2022-10-10T13:53:34.126Z,9.05
2022-10-10T13:56:24.489Z,15.85
2022-10-10T13:59:06.535Z,10.40
2022-10-10T14:57:08.653Z,12.25
2022-10-10T14:59:46.124Z,20.25
2022-10-10T15:02:22.609Z,17.83
2022-10-10T15:04:50.317Z,12.18
2022-10-10T15:07:17.713Z,14.60
2022-10-10T15:10:27.492Z,13.77
2022-10-10T15:12:41.050Z,10.55
2022-10-10T15:15:15.747Z,17.13
2022-10-10T15:17:43.032Z,13.40
2022-10-10T15:20:10.984Z,10.95
2022-10-10T15:22:44.671Z,15.70
2022-10-10T15:25:11.857Z,10.95
2022-10-10T15:27:39.020Z,11.93
2022-10-10T15:30:13.518Z,13.65
2022-10-10T15:32:41.593Z,12.23
2022-10-10T15:35:19.680Z,14.80
2022-10-10T15:37:47.347Z,10.45
2022-10-10T15:42:47.848Z,13.43
2022-10-10T15:45:26.523Z,12.65
2022-10-10T15:48:09.770Z,12.98
2022-10-10T15:50:41.952Z,13.50
2022-10-10T15:53:09.062Z,15.43
2022-10-10T15:55:48.633Z,10.25
2022-10-10T15:58:29.450Z,15.07
2022-10-10T16:00:56.721Z,11.27
2022-10-10T16:03:30.613Z,14.43
2022-10-10T16:05:57.792Z,11.38
2022-10-10T16:08:24.969Z,13.75
2022-10-10T16:10:58.593Z,11.55
2022-10-10T16:13:26.160Z,16.20
2022-10-10T16:16:10.571Z,18.08
2022-10-10T16:18:40.562Z,14.35
2022-10-10T16:21:24.543Z,14.25
2022-10-10T16:23:58.614Z,14.75
2022-10-10T16:26:29.128Z,14.63
2022-10-10T16:28:56.820Z,14.57
2022-10-10T16:31:31.659Z,16.20
2022-10-10T16:33:59.255Z,14.80
2022-10-10T16:39:00.149Z,11.75
2022-10-10T16:41:47.000Z,13.90
2022-10-10T16:44:21.547Z,18.23
2022-10-10T16:46:48.790Z,10.98
2022-10-10T16:49:32.006Z,16.98
2022-10-10T16:51:59.440Z,16.65
2022-10-10T16:54:26.697Z,11.15
2022-10-10T16:57:00.651Z,13.18
2022-10-10T16:59:34.907Z,14.82
2022-10-10T17:02:08.669Z,15.65
2022-10-10T17:04:42.520Z,17.83
2022-10-10T17:07:16.657Z,21.80
2022-10-10T17:09:50.476Z,16.52
2022-10-10T17:12:24.599Z,13.82
2022-10-10T17:14:58.478Z,19.02
2022-10-10T17:17:32.579Z,22.52
2022-10-10T17:19:59.799Z,18.67
2022-10-10T17:22:26.923Z,26.58
2022-10-10T17:25:00.567Z,19.98
2022-10-10T17:27:27.788Z,19.30
2022-10-10T17:30:08.574Z,17.77
2022-10-10T17:32:35.746Z,14.68
2022-10-10T17:35:03.017Z,19.90
2022-10-10T17:37:36.625Z,22.38
2022-10-10T17:40:04.562Z,20.33
2022-10-10T17:42:38.709Z,17.58
2022-10-10T17:45:05.934Z,19.88
2022-10-10T17:47:34.372Z,16.25
2022-10-10T17:50:08.620Z,19.20
2022-10-10T17:52:35.880Z,23.80
2022-10-10T17:55:09.933Z,24.00
2022-10-10T17:57:47.034Z,24.98
2022-10-10T18:00:22.985Z,23.45
2022-10-10T18:02:50.165Z,27.13
2022-10-10T18:05:17.385Z,19.55
2022-10-10T18:07:51.579Z,26.48
2022-10-10T18:10:18.848Z,23.08
2022-10-10T18:12:52.703Z,27.25
2022-10-10T18:15:19.915Z,23.35
2022-10-10T18:17:48.225Z,26.58
2022-10-10T18:20:21.607Z,26.40
2022-10-10T18:22:48.769Z,30.08
2022-10-10T18:25:25.067Z,32.38
2022-10-10T18:27:52.490Z,26.40
2022-10-10T18:30:19.666Z,30.60
2022-10-10T18:32:53.678Z,27.08
2022-10-10T18:35:21.013Z,34.85
2022-10-10T18:37:48.423Z,25.30
2022-10-10T18:40:23.674Z,29.13
2022-10-10T18:42:50.994Z,30.27
2022-10-10T18:45:24.702Z,23.75
2022-10-10T18:47:51.859Z,32.42
2022-10-10T18:50:25.648Z,19.80
2022-10-10T18:52:53.724Z,20.13
2022-10-10T18:55:20.825Z,32.85
2022-10-10T18:57:54.657Z,15.57
2022-10-10T19:00:28.653Z,27.88
2022-10-10T19:03:02.676Z,29.40
2022-10-10T19:05:30.204Z,22.00
2022-10-10T19:07:57.411Z,26.70
2022-10-10T19:10:33.045Z,18.33
2022-10-10T19:13:00.223Z,18.60
2022-10-10T19:15:27.674Z,17.73
2022-10-10T19:18:01.693Z,14.80
2022-10-10T19:20:29.448Z,14.93
2022-10-10T19:22:56.697Z,14.25
2022-10-10T19:25:30.702Z,14.65
2022-10-10T19:28:04.672Z,12.85
2022-10-10T19:30:32.113Z,13.98
2022-10-10T19:32:59.665Z,17.52
2022-10-10T19:35:33.644Z,15.82
2022-10-10T19:38:00.819Z,12.45
2022-10-10T19:40:34.642Z,20.17
2022-10-10T19:43:02.303Z,13.70
2022-10-10T19:48:02.628Z,14.63
2022-10-10T19:50:29.830Z,17.77
2022-10-10T19:53:05.227Z,13.77
2022-10-10T19:55:32.504Z,14.82
2022-10-10T19:58:06.767Z,15.98
2022-10-10T20:00:40.564Z,18.58
2022-10-10T20:03:14.852Z,17.55
2022-10-10T20:05:42.036Z,16.42
2022-10-10T20:08:09.142Z,15.63
2022-10-10T20:10:42.748Z,16.20
2022-10-10T20:13:14.724Z,18.40
2022-10-10T20:15:49.810Z,19.85
2022-10-10T20:18:17.580Z,18.92
2022-10-10T20:20:47.220Z,20.52
2022-10-10T20:23:21.634Z,14.68
2022-10-10T20:25:48.899Z,24.73
2022-10-10T20:28:23.671Z,17.38
2022-10-10T20:30:51.828Z,27.33
2022-10-10T20:33:26.749Z,23.73
2022-10-10T20:35:56.200Z,24.95
2022-10-10T20:38:23.451Z,17.70
2022-10-10T20:40:56.765Z,18.77
2022-10-10T20:43:24.014Z,21.27
2022-10-10T20:45:57.855Z,18.85
2022-10-10T20:48:25.045Z,17.20
2022-10-10T20:51:17.736Z,20.40
2022-10-10T20:53:57.206Z,27.45
2022-10-10T20:56:31.658Z,25.35
2022-10-10T20:59:06.856Z,21.23
2022-10-10T21:01:41.725Z,20.90
2022-10-10T21:04:09.948Z,26.10
2022-10-10T21:06:43.645Z,26.00
2022-10-10T21:09:11.916Z,17.52
2022-10-10T21:11:50.625Z,26.67
2022-10-10T21:14:18.245Z,21.17
2022-10-10T21:16:45.397Z,27.70
2022-10-10T21:19:19.659Z,26.23
2022-10-10T21:21:53.563Z,32.83
2022-10-10T21:24:21.010Z,29.00
2022-10-10T21:26:56.604Z,32.58
2022-10-10T21:29:23.765Z,24.58
2022-10-10T21:31:50.973Z,25.25
2022-10-10T21:34:25.834Z,19.60
2022-10-10T21:36:53.013Z,20.02
2022-10-10T21:39:26.770Z,34.38
2022-10-10T21:41:53.940Z,34.33
2022-10-10T21:44:21.048Z,31.08
2022-10-10T21:46:54.683Z,16.77
2022-10-10T21:49:21.879Z,32.70
2022-10-10T21:51:55.669Z,22.02
2022-10-10T21:54:22.825Z,36.50
2022-10-10T21:56:56.814Z,30.63
2022-10-10T21:59:32.493Z,35.10
2022-10-10T22:02:06.782Z,33.80
2022-10-10T22:04:34.055Z,39.53
2022-10-10T22:07:01.467Z,37.60
2022-10-10T22:09:35.773Z,31.20
2022-10-10T22:12:02.932Z,27.63
2022-10-10T22:14:36.841Z,31.05
2022-10-10T22:17:04.089Z,29.52
2022-10-10T22:19:31.310Z,44.47
2022-10-10T22:22:04.692Z,34.47
2022-10-10T22:24:31.949Z,34.78
2022-10-10T22:27:05.775Z,44.22
2022-10-10T22:29:32.948Z,40.08
2022-10-10T22:32:00.059Z,26.30
2022-10-10T22:34:33.836Z,36.95
2022-10-10T22:37:00.976Z,39.25
2022-10-10T22:39:28.277Z,35.10
2022-10-10T22:42:01.741Z,30.52
2022-10-10T22:44:28.970Z,26.40
2022-10-10T22:46:56.050Z,32.30
2022-10-10T22:49:29.773Z,29.73
2022-10-10T22:51:57.018Z,35.10
2022-10-10T22:54:30.779Z,35.47
2022-10-10T22:56:57.881Z,34.42
2022-10-10T22:59:38.850Z,34.25
2022-10-10T23:02:06.002Z,51.53
2022-10-10T23:04:33.191Z,31.80
2022-10-10T23:07:06.750Z,36.08
2022-10-10T23:09:33.992Z,36.42
2022-10-10T23:12:07.850Z,40.80
2022-10-10T23:14:35.073Z,36.58
2022-10-10T23:17:02.231Z,42.92
2022-10-10T23:19:36.787Z,30.58
2022-10-10T23:22:03.972Z,39.03
2022-10-10T23:24:37.730Z,42.70
2022-10-10T23:27:05.006Z,35.33
2022-10-10T23:29:32.121Z,41.70
2022-10-10T23:32:05.790Z,41.75
2022-10-10T23:34:33.255Z,31.73
2022-10-10T23:37:06.754Z,40.15
2022-10-10T23:39:33.916Z,42.55
2022-10-10T23:42:01.138Z,48.08
2022-10-10T23:44:34.689Z,45.58
2022-10-10T23:47:01.836Z,54.08
2022-10-10T23:49:35.842Z,47.03
2022-10-10T23:52:02.915Z,37.92
2022-10-10T23:54:30.004Z,37.15
2022-10-10T23:57:03.749Z,55.55
2022-10-10T23:59:37.514Z,47.08
